Time;durP1;ratioP1;P1;durP2;ratioP2;P2;SDS_P1;SDS_P2;PMS_P1;PMS_P2;Temp;Humidity;BMP_temperature;BMP_pressure;BME280_temperature;BME280_humidity;BME280_pressure;Samples;Min_cycle;Max_cycle;Signal;HPM_P1;HPM_P2
2022/04/09 00:03:05;;;;;;;12.88;4.00;;;;;;;4.96;98.59;99360.97;8318699;28;20136;-67
2022/04/09 00:07:05;;;;;;;13.27;3.40;;;;;;;4.91;99.48;99365.91;8318164;28;20029;-67
2022/04/09 00:11:06;;;;;;;17.23;4.32;;;;;;;4.91;99.73;99379.28;8319893;28;20061;-68
2022/04/09 00:15:07;;;;;;;14.45;3.75;;;;;;;5.01;99.82;99383.72;8319720;28;20029;-67
2022/04/09 00:19:07;;;;;;;6.97;3.35;;;;;;;5.03;100.00;99394.28;8317552;28;20030;-67
2022/04/09 00:23:10;;;;;;;14.93;3.95;;;;;;;5.00;99.91;99400.75;8319128;28;20034;-67
2022/04/09 00:27:10;;;;;;;11.10;3.03;;;;;;;4.92;100.00;99405.94;8319237;28;20060;-67
2022/04/09 00:31:11;;;;;;;10.32;3.13;;;;;;;4.85;100.00;99420.81;8318975;28;20034;-67
2022/04/09 00:35:11;;;;;;;10.38;3.22;;;;;;;4.77;100.00;99433.16;8318546;28;20037;-67
2022/04/09 00:39:12;;;;;;;5.88;2.50;;;;;;;4.75;100.00;99438.63;8322784;28;20057;-67
2022/04/09 00:43:12;;;;;;;11.63;3.05;;;;;;;4.90;100.00;99449.84;8320178;28;20037;-67
2022/04/09 00:47:14;;;;;;;18.40;3.33;;;;;;;4.95;100.00;99459.22;8323022;28;20037;-67
2022/04/09 00:51:14;;;;;;;14.85;3.05;;;;;;;4.97;100.00;99451.88;8324305;28;20048;-67
2022/04/09 00:55:19;;;;;;;12.18;2.63;;;;;;;5.00;100.00;99461.50;8323354;28;20044;-67
2022/04/09 00:59:23;;;;;;;14.45;2.88;;;;;;;4.97;100.00;99477.84;8323099;28;20038;-67
2022/04/09 01:03:23;;;;;;;13.05;2.97;;;;;;;4.85;100.00;99489.59;8324964;28;20033;-67
2022/04/09 01:07:24;;;;;;;13.10;3.58;;;;;;;4.86;100.00;99491.28;8324173;28;20039;-67
2022/04/09 01:11:25;;;;;;;16.17;2.90;;;;;;;4.95;100.00;99499.38;8324518;28;20041;-67
2022/04/09 01:15:25;;;;;;;18.70;3.40;;;;;;;4.98;100.00;99511.66;8324754;28;20037;-67
2022/04/09 01:19:25;;;;;;;27.17;3.85;;;;;;;5.03;100.00;99514.81;8324004;28;20033;-67
2022/04/09 01:23:27;;;;;;;13.90;2.83;;;;;;;5.10;100.00;99532.03;8322734;28;20320;-67
2022/04/09 01:27:27;;;;;;;21.85;3.83;;;;;;;5.18;100.00;99540.25;8322724;28;20513;-67
2022/04/09 01:31:28;;;;;;;14.80;3.15;;;;;;;5.29;100.00;99542.88;8323985;28;20409;-67
2022/04/09 01:35:28;;;;;;;16.83;3.67;;;;;;;5.40;100.00;99556.22;8324394;28;20550;-67
2022/04/09 01:39:28;;;;;;;13.68;3.38;;;;;;;5.41;100.00;99552.56;8323303;28;20127;-67
2022/04/09 01:43:29;;;;;;;15.35;3.50;;;;;;;5.44;100.00;99563.00;8315873;28;20493;-67
2022/04/09 01:47:29;;;;;;;12.32;3.50;;;;;;;5.41;99.68;99565.94;8322919;28;20503;-67
2022/04/09 01:51:30;;;;;;;17.50;3.95;;;;;;;5.36;99.67;99579.75;8322992;28;20033;-67
2022/04/09 01:55:31;;;;;;;16.00;3.80;;;;;;;5.37;100.00;99585.97;8322011;28;20064;-67
2022/04/09 01:59:32;;;;;;;9.52;3.45;;;;;;;5.38;99.90;99596.56;8321557;28;20045;-67
2022/04/09 02:03:33;;;;;;;15.52;3.80;;;;;;;5.41;99.73;99606.16;8321356;28;20072;-67
2022/04/09 02:07:35;;;;;;;16.25;3.75;;;;;;;5.50;99.62;99608.03;8321170;28;20095;-67
2022/04/09 02:11:35;;;;;;;16.42;3.63;;;;;;;5.60;98.55;99614.31;8322717;28;20029;-67
2022/04/09 02:15:35;;;;;;;18.25;3.42;;;;;;;5.66;98.53;99616.47;8321402;28;20041;-67
2022/04/09 02:19:36;;;;;;;15.45;4.38;;;;;;;5.66;97.82;99621.84;8321973;28;20052;-67
2022/04/09 02:23:37;;;;;;;19.88;3.80;;;;;;;5.68;97.00;99634.09;8320847;28;20494;-67
2022/04/09 02:27:38;;;;;;;21.13;3.95;;;;;;;5.60;98.20;99641.13;8318572;28;20045;-67
2022/04/09 02:31:38;;;;;;;19.60;4.07;;;;;;;5.58;97.54;99637.75;8322331;28;20409;-67
2022/04/09 02:35:38;;;;;;;27.25;3.90;;;;;;;5.61;97.58;99645.50;8322532;28;20052;-67
2022/04/09 02:39:39;;;;;;;16.40;3.70;;;;;;;5.58;97.43;99641.25;8320399;28;20067;-67
2022/04/09 02:43:41;;;;;;;21.88;4.13;;;;;;;5.57;97.58;99654.78;8321873;28;20530;-67
2022/04/09 02:47:42;;;;;;;21.60;4.13;;;;;;;5.46;98.20;99663.72;8314868;28;20052;-67
2022/04/09 02:51:43;;;;;;;17.27;4.35;;;;;;;5.38;98.28;99671.59;8313418;28;20092;-67
2022/04/09 02:55:43;;;;;;;19.67;4.63;;;;;;;5.30;98.72;99681.22;8321586;28;20545;-67
2022/04/09 02:59:44;;;;;;;16.45;4.70;;;;;;;5.20;99.05;99682.97;8320347;28;20053;-67
2022/04/09 03:03:44;;;;;;;22.60;4.50;;;;;;;5.19;99.54;99692.81;8321514;28;20056;-67
2022/04/09 03:07:45;;;;;;;29.48;4.88;;;;;;;5.14;99.72;99704.91;8320332;28;20037;-67
2022/04/09 03:11:45;;;;;;;17.83;4.10;;;;;;;5.11;100.00;99710.53;8320235;28;20069;-67
2022/04/09 03:15:45;;;;;;;18.70;4.30;;;;;;;5.19;99.94;99718.78;8319997;28;20041;-67
2022/04/09 03:19:46;;;;;;;14.48;4.63;;;;;;;5.25;99.96;99729.81;8319076;28;20132;-67
2022/04/09 03:23:46;;;;;;;18.77;4.53;;;;;;;5.21;99.95;99730.22;8321274;28;20109;-67
2022/04/09 03:27:46;;;;;;;19.10;5.18;;;;;;;5.21;100.00;99732.88;8320852;28;20116;-67
2022/04/09 03:31:47;;;;;;;18.92;4.90;;;;;;;5.28;99.78;99739.47;8318631;28;20359;-67
2022/04/09 03:35:48;;;;;;;20.08;3.80;;;;;;;5.33;99.37;99747.94;8320363;28;20065;-67
2022/04/09 03:39:49;;;;;;;14.38;3.72;;;;;;;5.36;99.28;99751.25;8320002;28;20056;-67
2022/04/09 03:43:50;;;;;;;21.13;4.30;;;;;;;5.41;99.92;99759.78;8318586;28;20462;-67
2022/04/09 03:47:51;;;;;;;31.55;4.38;;;;;;;5.40;99.56;99759.91;8320275;28;20030;-66
2022/04/09 03:51:51;;;;;;;24.13;4.60;;;;;;;5.44;99.05;99769.38;8301623;28;20038;-66
2022/04/09 03:55:52;;;;;;;24.63;4.25;;;;;;;5.44;99.03;99777.41;8317240;28;20045;-66
2022/04/09 03:59:55;;;;;;;22.00;3.97;;;;;;;5.40;99.17;99786.69;8319806;28;20042;-66
2022/04/09 04:03:55;;;;;;;28.05;4.32;;;;;;;5.36;99.31;99793.25;8319568;28;20116;-66
2022/04/09 04:07:56;;;;;;;27.95;3.80;;;;;;;5.23;100.00;99801.47;8317942;28;20040;-66
2022/04/09 04:11:56;;;;;;;25.65;4.22;;;;;;;5.01;100.00;99796.16;8322335;28;20120;-66
2022/04/09 04:15:57;;;;;;;26.38;4.22;;;;;;;4.99;100.00;99818.66;8323680;28;20140;-66
2022/04/09 04:20:01;;;;;;;25.50;4.35;;;;;;;5.02;100.00;99815.72;8325461;28;20305;-66
2022/04/09 04:24:01;;;;;;;25.17;4.30;;;;;;;5.00;100.00;99831.09;8325163;28;20039;-66
2022/04/09 04:28:02;;;;;;;34.08;5.78;;;;;;;4.99;100.00;99838.25;8325638;28;20116;-66
2022/04/09 04:32:02;;;;;;;20.63;4.35;;;;;;;4.98;100.00;99843.75;8326062;28;20045;-67
2022/04/09 04:36:04;;;;;;;18.40;4.53;;;;;;;4.97;100.00;99852.75;8324295;28;20094;-67
2022/04/09 04:40:06;;;;;;;24.75;4.35;;;;;;;4.95;100.00;99843.97;8317093;28;20045;-67
2022/04/09 04:44:07;;;;;;;22.48;5.20;;;;;;;4.98;100.00;99849.09;8338491;28;20045;-67
2022/04/09 04:48:07;;;;;;;30.60;5.43;;;;;;;4.97;100.00;99858.13;8324297;28;20045;-67
2022/04/09 04:52:07;;;;;;;23.92;4.65;;;;;;;4.93;100.00;99861.97;8306688;28;20030;-67
2022/04/09 04:56:08;;;;;;;36.15;5.47;;;;;;;4.93;100.00;99878.91;8323257;28;20048;-67
2022/04/09 05:00:08;;;;;;;21.25;4.05;;;;;;;4.92;100.00;99887.06;8324754;28;20564;-67
2022/04/09 05:04:10;;;;;;;37.47;5.07;;;;;;;4.92;100.00;99892.44;8325204;28;20036;-67
2022/04/09 05:08:10;;;;;;;21.75;3.97;;;;;;;4.92;100.00;99898.66;8324646;28;20518;-67
2022/04/09 05:12:10;;;;;;;23.13;4.55;;;;;;;4.80;100.00;99898.75;8323261;28;20442;-67
2022/04/09 05:16:11;;;;;;;15.60;3.97;;;;;;;4.85;100.00;99915.31;8322421;28;20037;-67
2022/04/09 05:20:14;;;;;;;19.90;4.22;;;;;;;4.95;100.00;99929.69;8324766;28;20596;-67
2022/04/09 05:24:15;;;;;;;27.83;5.90;;;;;;;5.00;100.00;99922.16;8323644;28;20171;-67
2022/04/09 05:28:15;;;;;;;17.20;4.05;;;;;;;5.08;100.00;99930.41;8322453;28;20068;-67
2022/04/09 05:32:16;;;;;;;28.73;4.50;;;;;;;5.15;100.00;99923.59;8324602;28;20434;-67
2022/04/09 05:36:16;;;;;;;28.83;4.70;;;;;;;5.22;100.00;99938.22;8320883;28;20491;-67
2022/04/09 05:40:17;;;;;;;24.23;5.03;;;;;;;5.26;100.00;99947.72;8323807;28;20091;-67
2022/04/09 05:44:17;;;;;;;26.92;4.75;;;;;;;5.31;100.00;99953.59;8323446;28;20406;-67
2022/04/09 05:48:18;;;;;;;23.80;4.63;;;;;;;5.47;99.68;99954.06;8323294;28;20390;-67
2022/04/09 05:52:18;;;;;;;25.92;5.45;;;;;;;5.63;98.17;99957.22;8322990;28;20037;-67
2022/04/09 05:56:19;;;;;;;19.67;5.45;;;;;;;5.76;96.75;99960.59;8322662;28;20414;-67
2022/04/09 06:00:19;;;;;;;17.95;4.65;;;;;;;5.89;96.04;99966.75;8315892;28;20044;-67
2022/04/09 06:04:21;;;;;;;25.10;4.28;;;;;;;6.01;94.57;99971.13;8322027;28;20033;-67
2022/04/09 06:08:22;;;;;;;27.02;4.60;;;;;;;6.17;93.25;99976.91;8321852;28;20490;-67
2022/04/09 06:12:22;;;;;;;24.33;5.03;;;;;;;6.36;92.51;99987.84;8323001;28;20451;-67
2022/04/09 06:16:23;;;;;;;27.33;4.57;;;;;;;6.54;92.00;99996.19;8321820;28;20047;-67
2022/04/09 06:20:23;;;;;;;20.35;5.07;;;;;;;6.67;91.10;99999.53;8321218;28;20044;-67
2022/04/09 06:24:24;;;;;;;19.15;4.22;;;;;;;6.85;90.71;100001.53;8321261;28;20044;-67
2022/04/09 06:28:24;;;;;;;20.13;4.53;;;;;;;7.02;90.29;100009.00;8321463;28;20037;-67
2022/04/09 06:32:25;;;;;;;25.08;4.82;;;;;;;7.10;88.59;100009.22;8322312;28;20639;-67
2022/04/09 06:36:25;;;;;;;23.10;4.32;;;;;;;7.26;87.77;100028.41;8321858;28;20034;-67
2022/04/09 06:40:28;;;;;;;28.80;5.05;;;;;;;7.38;87.42;100038.13;8322386;28;20394;-67
2022/04/09 06:44:28;;;;;;;11.68;3.67;;;;;;;7.54;86.56;100046.56;8322042;28;20494;-67
2022/04/09 06:48:29;;;;;;;22.63;4.50;;;;;;;7.62;84.99;100040.50;8319314;28;20420;-67
2022/04/09 06:52:29;;;;;;;20.20;4.00;;;;;;;7.72;83.97;100050.34;8320520;28;20482;-67
2022/04/09 06:56:29;;;;;;;19.15;3.70;;;;;;;7.82;83.53;100053.94;8320757;28;20063;-67
2022/04/09 07:00:32;;;;;;;13.45;3.20;;;;;;;7.99;82.86;100058.69;8321750;28;20128;-67
2022/04/09 07:04:32;;;;;;;19.10;3.20;;;;;;;8.04;82.89;100067.22;8321342;28;20191;-67
2022/04/09 07:08:33;;;;;;;18.00;3.55;;;;;;;8.16;82.59;100072.47;8337442;28;20041;-67
2022/04/09 07:12:33;;;;;;;13.65;3.63;;;;;;;8.64;82.38;100078.91;8304184;28;20037;-67
2022/04/09 07:16:34;;;;;;;13.48;3.45;;;;;;;8.19;81.44;100077.59;8315158;28;20568;-67
2022/04/09 07:20:36;;;;;;;11.35;2.97;;;;;;;7.93;82.57;100088.81;8317707;28;20144;-67
2022/04/09 07:24:36;;;;;;;28.63;4.18;;;;;;;8.46;82.26;100085.94;8321152;28;20069;-67
2022/04/09 07:28:36;;;;;;;13.82;3.20;;;;;;;8.53;80.84;100095.16;8317844;28;20289;-67
2022/04/09 07:32:37;;;;;;;21.17;3.33;;;;;;;8.50;81.58;100109.78;8317194;28;20502;-67
2022/04/09 07:36:38;;;;;;;19.17;3.80;;;;;;;8.32;81.72;100110.59;8315669;28;20045;-67
2022/04/09 07:40:38;;;;;;;17.83;3.92;;;;;;;8.68;81.61;100107.25;8310841;28;20038;-67
2022/04/09 07:44:39;;;;;;;14.52;2.72;;;;;;;8.69;79.96;100115.19;8319112;28;20124;-67
2022/04/09 07:48:39;;;;;;;16.35;2.92;;;;;;;8.99;80.55;100120.50;8313332;28;20117;-67
2022/04/09 07:52:42;;;;;;;24.42;3.55;;;;;;;9.06;79.41;100126.19;8317450;28;20041;-67
2022/04/09 07:56:43;;;;;;;23.50;4.65;;;;;;;9.05;80.89;100132.56;8315544;28;20120;-67
2022/04/09 08:00:44;;;;;;;21.75;3.35;;;;;;;9.16;80.26;100137.84;8342837;28;20091;-67
2022/04/09 08:04:45;;;;;;;25.77;4.13;;;;;;;9.22;79.61;100139.97;8312994;28;20268;-67
2022/04/09 08:08:45;;;;;;;22.30;3.13;;;;;;;9.40;79.26;100138.28;8315032;28;20041;-66
2022/04/09 08:12:48;;;;;;;11.73;3.33;;;;;;;9.59;77.72;100141.81;8308422;28;20029;-67
2022/04/09 08:16:49;;;;;;;20.30;3.10;;;;;;;9.63;76.29;100145.06;8295886;28;20064;-67
2022/04/09 08:20:50;;;;;;;10.80;2.20;;;;;;;9.82;75.96;100155.81;8284915;28;20042;-65
2022/04/09 08:24:50;;;;;;;11.73;2.15;;;;;;;9.98;75.14;100151.53;8296143;28;20091;-65
2022/04/09 08:28:51;;;;;;;16.05;2.35;;;;;;;10.10;74.82;100163.06;8300530;28;20458;-65
2022/04/09 08:32:53;;;;;;;13.90;2.72;;;;;;;10.02;72.51;100177.28;8312430;28;20030;-65
2022/04/09 08:36:54;;;;;;;15.05;3.05;;;;;;;9.76;73.83;100167.22;8316198;28;20047;-65
2022/04/09 08:40:55;;;;;;;7.57;2.70;;;;;;;9.89;75.51;100173.16;8317005;28;20505;-65
2022/04/09 08:44:55;;;;;;;11.23;2.10;;;;;;;9.86;74.23;100173.47;8313638;28;20128;-65
2022/04/09 08:48:58;;;;;;;16.75;2.63;;;;;;;9.92;75.53;100172.88;8297822;28;20041;-65
2022/04/09 08:53:05;;;;;;;13.80;1.90;;;;;;;10.13;74.73;100176.28;8311139;28;20041;-65
2022/04/09 08:57:06;;;;;;;12.48;2.33;;;;;;;10.36;72.78;100177.63;8315683;28;20099;-65
2022/04/09 09:01:06;;;;;;;16.17;2.38;;;;;;;10.38;71.48;100186.44;8309408;28;20038;-65
2022/04/09 09:05:07;;;;;;;16.20;2.80;;;;;;;10.29;72.95;100183.75;8310855;28;20072;-65
2022/04/09 09:09:09;;;;;;;15.65;2.38;;;;;;;10.21;71.48;100189.88;8319826;28;20039;-65
2022/04/09 09:13:12;;;;;;;17.73;2.97;;;;;;;10.17;73.92;100185.78;8321773;28;20049;-65
2022/04/09 09:17:12;;;;;;;21.88;3.40;;;;;;;10.28;72.73;100191.00;8319358;28;20502;-65
2022/04/09 09:21:15;;;;;;;15.15;2.92;;;;;;;10.49;72.85;100197.06;8292649;28;20511;-64
2022/04/09 09:25:15;;;;;;;15.90;3.17;;;;;;;10.47;72.43;100182.84;8323475;28;20041;-64
2022/04/09 09:29:27;;;;;;;7.78;2.13;;;;;;;11.00;70.73;100196.53;8306177;28;20132;-64
2022/04/09 09:33:28;;;;;;;11.57;2.45;;;;;;;10.73;69.30;100191.97;8336090;28;20668;-64
2022/04/09 09:37:31;;;;;;;11.45;2.53;;;;;;;11.58;64.96;100201.41;8327228;28;20043;-64
2022/04/09 09:41:31;;;;;;;10.45;2.25;;;;;;;11.99;63.07;100196.38;8333809;28;20056;-64
2022/04/09 09:45:40;;;;;;;12.07;2.60;;;;;;;10.67;68.14;100199.84;8317100;28;20032;-64
2022/04/09 09:49:55;;;;;;;23.52;4.82;;;;;;;10.36;68.77;100210.03;8334994;28;20041;-64
2022/04/09 09:54:13;;;;;;;27.30;4.88;;;;;;;11.86;63.31;100208.47;8322706;28;20041;-64
2022/04/09 09:58:16;;;;;;;14.98;2.70;;;;;;;11.31;63.50;100206.88;8324150;28;20449;-64
2022/04/09 10:02:20;;;;;;;35.10;6.47;;;;;;;14.03;59.07;100203.97;8326200;28;20048;-64
2022/04/09 10:06:21;;;;;;;;;;;;;;;12.41;59.36;100200.06;8328274;28;20383;-64
2022/04/09 10:14:26;;;;;;;40.08;6.97;;;;;;;10.20;63.37;100185.50;8286480;22;20385;-87
2022/04/09 10:18:26;;;;;;;3.75;1.50;;;;;;;9.81;61.45;100186.53;8269099;28;20129;-87
2022/04/09 10:22:30;;;;;;;6.35;1.52;;;;;;;12.58;57.63;100202.72;8265523;28;20045;-87
2022/04/09 10:26:31;;;;;;;18.97;1.93;;;;;;;15.28;52.59;100182.19;8252075;28;20047;-87
2022/04/09 10:30:40;;;;;;;6.97;1.77;;;;;;;16.51;50.24;100171.03;8257444;28;20087;-87
2022/04/09 10:34:50;;;;;;;8.43;1.75;;;;;;;16.58;49.30;100188.34;8252326;28;20095;-87
2022/04/09 10:39:38;;;;;;;6.53;1.42;;;;;;;16.72;47.05;100187.53;8261510;28;20045;-87
2022/04/09 10:43:40;;;;;;;5.85;1.40;;;;;;;17.19;48.48;100187.94;8283541;28;20120;-87
2022/04/09 10:48:05;;;;;;;5.82;1.52;;;;;;;12.87;52.65;100191.50;8264017;28;20503;-87
2022/04/09 10:52:14;;;;;;;9.07;2.20;;;;;;;12.89;56.44;100184.03;8257290;28;20054;-87
2022/04/09 10:56:21;;;;;;;13.15;1.92;;;;;;;15.54;49.94;100166.41;8257231;28;20042;-88
2022/04/09 11:00:28;;;;;;;12.07;1.92;;;;;;;15.80;49.79;100193.31;8282410;28;20046;-87
2022/04/09 11:04:35;;;;;;;6.28;2.05;;;;;;;11.95;58.28;100219.38;8283306;28;20084;-87
2022/04/09 11:08:35;;;;;;;10.13;1.60;;;;;;;9.03;70.18;100269.38;8281026;28;20052;-88
2022/04/09 11:12:43;;;;;;;1.95;0.90;;;;;;;7.81;68.60;100219.06;8265907;28;20121;-88
2022/04/09 11:16:44;;;;;;;6.43;1.10;;;;;;;7.83;72.95;100227.88;8266729;28;20041;-87
2022/04/09 11:20:45;;;;;;;7.35;1.50;;;;;;;8.71;75.80;100225.56;8225340;28;23160;-87
2022/04/09 11:24:46;;;;;;;6.13;1.40;;;;;;;13.33;65.87;100204.59;8293086;28;20047;-88
2022/04/09 11:28:48;;;;;;;8.38;1.85;;;;;;;16.00;57.03;100210.00;8254295;28;20510;-88
2022/04/09 11:32:48;;;;;;;7.55;2.05;;;;;;;17.33;55.48;100203.50;8282159;28;20127;-88
2022/04/09 11:36:51;;;;;;;13.13;2.25;;;;;;;14.98;56.37;100195.81;8259536;28;20037;-88
2022/04/09 11:40:55;;;;;;;9.63;2.00;;;;;;;13.15;56.37;100217.41;8268825;28;20042;-88
2022/04/09 11:44:56;;;;;;;6.50;2.47;;;;;;;15.83;56.93;100219.38;8226506;28;20059;-87
2022/04/09 11:48:59;;;;;;;8.27;1.60;;;;;;;17.73;52.36;100210.28;8269286;28;20038;-87
2022/04/09 11:53:10;;;;;;;7.10;1.25;;;;;;;18.55;48.95;100205.00;8262762;28;20060;-86
2022/04/09 11:57:12;;;;;;;4.88;1.52;;;;;;;16.43;50.48;100228.38;8267274;28;20038;-87
2022/04/09 12:01:13;;;;;;;7.30;1.50;;;;;;;11.36;63.97;100253.28;8277524;28;20092;-87
2022/04/09 12:05:14;;;;;;;6.10;1.67;;;;;;;9.32;70.20;100289.19;8258292;28;20049;-87
2022/04/09 12:09:15;;;;;;;4.20;1.50;;;;;;;8.40;73.20;100266.94;8248390;28;20272;-87
2022/04/09 12:13:15;;;;;;;3.30;1.15;;;;;;;8.14;73.47;100254.88;8263173;28;20173;-87
2022/04/09 12:17:16;;;;;;;2.22;1.15;;;;;;;8.45;71.90;100272.81;8253336;28;20387;-86
2022/04/09 12:21:23;;;;;;;1.90;1.20;;;;;;;8.86;68.43;100267.31;8246233;28;20041;-87
2022/04/09 12:25:43;;;;;;;4.25;1.35;;;;;;;9.44;69.99;100269.19;8251862;28;20494;-86
2022/04/09 12:29:51;;;;;;;10.20;2.58;;;;;;;10.14;64.94;100247.34;8243955;28;20061;-87
2022/04/09 12:34:01;;;;;;;2.90;1.50;;;;;;;10.41;64.53;100251.00;8284197;28;20062;-87
2022/04/09 12:38:01;;;;;;;5.03;1.02;;;;;;;10.53;59.95;100239.03;8280097;28;20734;-87
2022/04/09 12:42:03;;;;;;;4.50;1.35;;;;;;;11.47;59.52;100253.03;8259813;28;20611;-87
2022/04/09 12:46:11;;;;;;;4.47;1.90;;;;;;;11.45;60.62;100216.31;8260062;28;20026;-87
2022/04/09 12:50:30;;;;;;;3.55;1.67;;;;;;;11.57;58.07;100237.59;8257049;28;20037;-87
2022/04/09 12:54:32;;;;;;;7.65;2.75;;;;;;;11.56;59.11;100262.97;8277623;28;20042;-87
2022/04/09 12:58:32;;;;;;;5.60;1.80;;;;;;;11.38;59.92;100253.97;8254666;28;20077;-87
2022/04/09 13:02:36;;;;;;;3.55;1.30;;;;;;;11.00;59.29;100219.03;8251594;28;20041;-88
2022/04/09 13:06:38;;;;;;;5.18;1.50;;;;;;;10.97;58.93;100226.56;8273023;28;20049;-88
2022/04/09 13:10:39;;;;;;;4.55;1.40;;;;;;;11.39;58.01;100252.97;8241860;28;20066;-88
2022/04/09 13:14:39;;;;;;;3.80;2.10;;;;;;;11.09;61.63;100269.53;8242280;28;20065;-88
2022/04/09 13:18:41;;;;;;;6.60;2.20;;;;;;;10.20;64.85;100279.19;8238321;28;20050;-87
2022/04/09 13:22:41;;;;;;;6.80;2.50;;;;;;;10.15;65.31;100285.00;8278193;28;20479;-88
2022/04/09 13:26:42;;;;;;;2.88;1.95;;;;;;;10.59;65.08;100278.97;8256202;28;20042;-88
2022/04/09 13:30:42;;;;;;;6.57;2.13;;;;;;;10.60;63.54;100261.75;8271771;28;20119;-88
2022/04/09 13:34:43;;;;;;;7.22;2.53;;;;;;;10.62;63.81;100278.69;8247138;28;20049;-88
2022/04/09 13:38:44;;;;;;;7.40;1.98;;;;;;;10.54;64.62;100262.34;8282786;28;20056;-88
2022/04/09 13:42:45;;;;;;;6.45;2.15;;;;;;;10.67;64.56;100270.97;8286743;28;20069;-88
2022/04/09 13:46:45;;;;;;;4.03;2.60;;;;;;;11.14;65.39;100278.06;8243092;28;20543;-88
2022/04/09 13:50:46;;;;;;;4.15;2.00;;;;;;;11.02;61.72;100268.44;8274660;28;20087;-86
2022/04/09 13:54:50;;;;;;;6.85;1.92;;;;;;;11.79;64.15;100277.81;8244421;28;20422;-87
2022/04/09 13:58:50;;;;;;;4.43;1.60;;;;;;;11.45;59.77;100274.03;8267240;28;20042;-86
2022/04/09 14:02:51;;;;;;;5.57;1.88;;;;;;;11.01;59.08;100277.53;8269111;28;20126;-87
2022/04/09 14:06:51;;;;;;;2.78;1.17;;;;;;;10.98;58.93;100277.81;8248973;28;20100;-86
2022/04/09 14:10:52;;;;;;;5.30;1.50;;;;;;;11.25;59.30;100274.25;8269724;28;20049;-86
2022/04/09 14:14:53;;;;;;;2.42;1.40;;;;;;;12.05;58.42;100279.72;8275317;28;20039;-86
2022/04/09 14:18:54;;;;;;;4.93;1.10;;;;;;;11.96;57.35;100273.41;8261532;28;20538;-86
2022/04/09 14:22:54;;;;;;;4.40;1.27;;;;;;;12.06;59.41;100278.72;8248721;28;20400;-86
2022/04/09 14:26:54;;;;;;;3.88;1.50;;;;;;;11.74;57.24;100277.41;8260840;28;20073;-86
2022/04/09 14:30:55;;;;;;;4.95;1.20;;;;;;;11.44;57.63;100296.66;8278424;28;20046;-86
2022/04/09 14:34:55;;;;;;;5.13;1.30;;;;;;;11.15;57.15;100287.00;8255330;28;20042;-86
2022/04/09 14:38:56;;;;;;;5.57;1.92;;;;;;;11.16;57.38;100296.84;8251476;28;20054;-86
2022/04/09 14:42:57;;;;;;;5.45;2.00;;;;;;;10.80;64.64;100290.41;8245228;28;20042;-86
2022/04/09 14:46:58;;;;;;;4.30;2.30;;;;;;;10.23;66.87;100312.19;8254349;28;20058;-86
2022/04/09 14:50:58;;;;;;;3.83;1.90;;;;;;;10.13;67.61;100311.34;8238259;28;20041;-86
2022/04/09 14:54:59;;;;;;;4.05;2.00;;;;;;;10.38;68.23;100324.25;8272698;28;20037;-87
2022/04/09 14:59:00;;;;;;;3.95;2.33;;;;;;;10.31;67.81;100315.00;8245137;28;20053;-86
2022/04/09 15:03:04;;;;;;;4.75;2.58;;;;;;;10.17;68.15;100307.34;8273567;28;20117;-86
2022/04/09 15:07:06;;;;;;;5.15;2.42;;;;;;;10.37;68.63;100309.00;8269994;28;20188;-86
2022/04/09 15:11:06;;;;;;;4.22;1.92;;;;;;;10.30;67.96;100316.00;8286625;28;20066;-86
2022/04/09 15:15:09;;;;;;;4.15;1.83;;;;;;;10.43;66.17;100316.53;8221093;28;20038;-86
2022/04/09 15:19:10;;;;;;;5.43;2.00;;;;;;;10.53;66.61;100333.63;8252806;28;20072;-86
2022/04/09 15:23:11;;;;;;;7.93;2.00;;;;;;;10.40;65.55;100341.16;8242217;28;20034;-87
2022/04/09 15:27:13;;;;;;;4.53;2.10;;;;;;;10.10;69.58;100346.75;8252204;28;20030;-86
2022/04/09 15:31:14;;;;;;;5.22;2.05;;;;;;;9.82;67.21;100351.06;8260406;28;20117;-86
2022/04/09 15:35:15;;;;;;;5.75;1.73;;;;;;;9.75;69.94;100335.56;8283382;28;20041;-86
2022/04/09 15:39:15;;;;;;;3.95;2.20;;;;;;;9.93;72.05;100350.09;8263647;28;20049;-86
2022/04/09 15:43:16;;;;;;;6.45;2.63;;;;;;;9.96;67.49;100347.09;8277594;28;20053;-86
2022/04/09 15:47:16;;;;;;;3.45;1.20;;;;;;;10.26;68.96;100346.16;8269304;28;20513;-86
2022/04/09 15:51:17;;;;;;;5.10;1.95;;;;;;;10.32;67.95;100359.94;8232525;28;20044;-86
2022/04/09 15:55:18;;;;;;;7.57;3.15;;;;;;;10.24;69.73;100351.69;8265614;28;20571;-87
2022/04/09 15:59:19;;;;;;;2.70;0.80;;;;;;;10.13;61.67;100348.28;8264823;28;20062;-86
2022/04/09 16:03:21;;;;;;;4.15;1.45;;;;;;;9.97;60.66;100327.19;8256423;28;20496;-87
2022/04/09 16:07:22;;;;;;;2.90;0.90;;;;;;;9.98;58.02;100355.94;8253761;28;20563;-86
2022/04/09 16:11:22;;;;;;;3.10;0.88;;;;;;;9.82;59.07;100361.00;8241957;28;20455;-87
2022/04/09 16:15:23;;;;;;;3.25;0.68;;;;;;;9.74;58.13;100358.16;8275820;28;20135;-87
2022/04/09 16:19:23;;;;;;;4.72;0.80;;;;;;;9.69;58.58;100360.41;8255671;28;20049;-87
2022/04/09 16:23:23;;;;;;;3.40;0.52;;;;;;;9.74;60.92;100358.16;8290710;28;20519;-86
2022/04/09 16:27:24;;;;;;;6.40;0.85;;;;;;;9.97;59.09;100363.16;8275800;28;20072;-86
2022/04/09 16:31:24;;;;;;;7.80;0.93;;;;;;;10.24;58.00;100367.91;8267344;28;20045;-86
2022/04/09 16:35:25;;;;;;;2.72;1.00;;;;;;;10.28;60.42;100366.63;8255618;28;20062;-86
2022/04/09 16:39:25;;;;;;;4.15;0.52;;;;;;;10.33;60.03;100340.03;8289848;28;20037;-86
2022/04/09 16:43:26;;;;;;;3.90;0.88;;;;;;;10.32;60.51;100324.81;8255620;28;20049;-86
2022/04/09 16:47:26;;;;;;;1.98;0.77;;;;;;;10.46;60.57;100358.66;8267658;28;20137;-86
2022/04/09 16:51:28;;;;;;;4.95;0.82;;;;;;;10.44;58.10;100372.31;8251632;28;20038;-86
2022/04/09 16:55:31;;;;;;;4.60;0.95;;;;;;;10.30;57.28;100371.88;8261169;28;20498;-86
2022/04/09 16:59:32;;;;;;;3.08;1.40;;;;;;;10.07;58.80;100371.31;8247712;28;20482;-86
2022/04/09 17:03:32;;;;;;;3.85;0.75;;;;;;;10.02;59.51;100384.34;8258028;28;20126;-86
2022/04/09 17:07:33;;;;;;;4.38;0.95;;;;;;;10.13;58.35;100394.22;8279433;28;20120;-86
2022/04/09 17:11:33;;;;;;;1.92;0.90;;;;;;;9.93;59.93;100380.66;8295976;28;20041;-86
2022/04/09 17:15:34;;;;;;;5.32;1.15;;;;;;;9.96;59.99;100384.91;8259138;28;20088;-86
2022/04/09 17:19:34;;;;;;;2.67;1.20;;;;;;;9.79;61.21;100391.84;8284503;28;20047;-86
2022/04/09 17:23:35;;;;;;;2.83;0.77;;;;;;;9.79;60.32;100380.22;8263469;28;20054;-86
2022/04/09 17:27:37;;;;;;;7.00;1.23;;;;;;;9.65;60.72;100391.38;8249708;28;20042;-86
2022/04/09 17:31:37;;;;;;;4.38;1.15;;;;;;;9.59;59.09;100378.44;8254725;28;20513;-86
2022/04/09 17:35:38;;;;;;;2.70;1.13;;;;;;;9.64;58.07;100389.69;8274320;28;20045;-86
2022/04/09 17:39:42;;;;;;;3.08;1.20;;;;;;;9.55;57.83;100404.00;8274796;28;20064;-86
2022/04/09 17:43:42;;;;;;;3.85;1.23;;;;;;;9.34;58.83;100392.41;8278609;28;20462;-86
2022/04/09 17:47:42;;;;;;;3.42;1.27;;;;;;;9.31;58.61;100403.47;8245562;28;20088;-86
2022/04/09 17:51:43;;;;;;;2.22;0.98;;;;;;;9.03;58.50;100393.41;8249893;28;20096;-86
2022/04/09 17:55:43;;;;;;;5.85;0.85;;;;;;;9.00;59.30;100415.25;8272276;28;20037;-85
2022/04/09 17:59:44;;;;;;;5.32;0.98;;;;;;;8.86;59.28;100416.44;8278020;28;20266;-86
2022/04/09 18:03:44;;;;;;;4.78;0.90;;;;;;;8.70;58.63;100407.09;8262090;28;20126;-86
2022/04/09 18:07:45;;;;;;;5.47;1.48;;;;;;;8.68;60.42;100431.50;8245284;28;20038;-86
2022/04/09 18:11:45;;;;;;;3.30;1.15;;;;;;;8.48;60.60;100424.22;8272016;28;20046;-86
2022/04/09 18:15:45;;;;;;;3.13;0.93;;;;;;;8.38;62.12;100438.63;8243842;28;20054;-85
2022/04/09 18:19:46;;;;;;;5.03;1.40;;;;;;;8.29;62.13;100434.00;8254220;28;20042;-87
2022/04/09 18:23:46;;;;;;;2.58;1.30;;;;;;;8.21;63.33;100440.00;8286508;28;20049;-85
2022/04/09 18:27:47;;;;;;;7.60;1.25;;;;;;;8.20;63.78;100450.91;8262947;28;20037;-86
2022/04/09 18:31:47;;;;;;;4.18;1.60;;;;;;;8.30;63.93;100468.03;8266692;28;20061;-87
2022/04/09 18:35:48;;;;;;;3.50;1.60;;;;;;;8.47;63.03;100473.72;8263104;28;20049;-87
2022/04/09 18:39:48;;;;;;;5.35;1.60;;;;;;;8.38;63.79;100481.72;8273763;28;20046;-88
2022/04/09 18:43:48;;;;;;;3.33;1.25;;;;;;;8.26;64.57;100483.56;8256084;28;20034;-88
2022/04/09 18:47:49;;;;;;;5.30;1.60;;;;;;;8.05;65.89;100491.56;8262175;28;20509;-87
2022/04/09 18:51:49;;;;;;;4.72;1.40;;;;;;;8.05;65.42;100496.06;8267109;28;20046;-89